Latest Coastal Weather Observations for Swan Island

IDT60701

Issued at 6:52 pm EST Thursday 18 July 2024 (issued every 10 minutes, with the page automatically refreshed every 10 minutes)

About coastal observations | Map of coastal stations | Coastal observations for TAS | Marine services | Other Formats
Station Details ID: 092123 Name: SWAN ISLAND Lat: -40.73 Lon: 148.12 Height: 15.0 m
Data from the previous 72 hours. | See also: Recent months at Swan Island
Date/Time
EST
Wind Sea
Height
m
Swell Vis
km
Cloud Weather Temp
°C
Press
MSL
hPa
Rain since
9am
mm
Dir  Spd
kts
Gust
kts
Height
m
Period
s
Dir
18/06:30pm WSW 8 12 - - - - - - - 9.6 1008.9 0.0
18/06:00pm WSW 8 13 - - - - - - - 9.9 1008.7 0.0
18/05:30pm W 14 19 - - - - - - - 10.5 1008.5 0.0
18/05:00pm W 15 21 - - - - - - - 10.7 1008.3 0.0
18/04:30pm W 15 19 - - - - - - - 10.9 1008.2 0.0
18/04:00pm W 16 21 - - - - - - - 11.2 1008.0 0.0
18/03:30pm W 13 18 - - - - - - - 11.7 1007.8 0.0
18/03:00pm W 13 18 - - - - - - - 11.8 1007.8 0.0
18/02:30pm W 13 17 - - - - - - - 12.2 1007.8 0.0
18/02:00pm W 11 16 - - - - - - - 11.9 1007.7 0.0
18/01:30pm W 13 19 - - - - - - - 11.9 1007.5 0.0
18/01:00pm W 12 17 - - - - - - - 11.9 1007.9 0.0
18/12:30pm W 15 21 - - - - - - - 11.6 1008.2 0.0
18/12:00pm W 13 19 - - - - - - - 11.8 1008.7 0.0
18/11:30am W 14 20 - - - - - - - 11.1 1009.1 0.0
18/11:00am W 13 20 - - - - - - - 10.9 1009.5 0.0
18/10:30am W 14 21 - - - - - - - 10.7 1009.8 0.0
18/10:00am W 12 18 - - - - - - - 9.8 1009.8 0.0
18/09:30am W 10 16 - - - - - - - 9.7 1009.9 0.0
18/09:00am W 11 16 - - - - - - - 8.9 1009.8 -
18/08:30am W 10 15 - - - - - - - 7.8 1009.5 -
18/08:00am W 11 16 - - - - - - - 7.5 1009.5 -
18/07:30am WSW 7 11 - - - - - - - 6.4 1009.5 -
18/07:00am WSW 8 13 - - - - - - - 6.2 1009.6 -
18/06:30am WSW 9 14 - - - - - - - 6.4 1009.4 -
18/06:00am WSW 9 15 - - - - - - - 6.2 1009.3 -
18/05:30am WSW 6 10 - - - - - - - 5.1 1009.3 -
18/05:00am WSW 5 7 - - - - - - - 5.1 1009.4 -
18/04:30am WSW 5 9 - - - - - - - 5.7 1009.4 -
18/04:00am W 7 10 - - - - - - - 5.3 1009.2 -
18/03:30am WSW 4 6 - - - - - - - 5.2 1009.7 -
18/03:00am WSW 5 9 - - - - - - - 4.9 1009.9 0.0
18/02:30am SW 5 7 - - - - - - - 5.2 1010.1 -
18/02:00am SW 6 9 - - - - - - - 5.3 1010.0 -
18/01:30am WSW 4 6 - - - - - - - 4.7 1010.0 -
18/01:00am SW 4 6 - - - - - - - 4.6 1010.2 -
18/12:30am WSW 5 7 - - - - - - - 4.5 1010.6 -
18/12:00am SW 5 7 - - - - - - - 5.2 1010.8 -
 
Date/Time
EST
Wind Sea
Height
m
Swell Vis
km
Cloud Weather Temp
°C
Press
MSL
hPa
Rain since
9am
mm
Dir  Spd
kts
Gust
kts
Height
m
Period
s
Dir
17/11:30pm SW 4 5 - - - - - - - 5.0 1011.1 -
17/11:00pm SW 4 6 - - - - - - - 5.3 1011.2 -
17/10:30pm WSW 5 7 - - - - - - - 5.5 1011.3 -
17/10:00pm SW 5 6 - - - - - - - 6.0 1011.4 -
17/09:30pm SW 5 5 - - - - - - - 6.3 1011.6 -
17/09:00pm SW 5 7 - - - - - - - 6.3 1011.5 0.0
17/08:30pm SSW 4 5 - - - - - - - 7.5 1011.4 -
17/08:00pm SSW 4 6 - - - - - - - 7.5 1011.3 -
17/07:30pm SSW 4 7 - - - - - - - 7.3 1011.3 -
17/07:00pm SSW 5 7 - - - - - - - 8.1 1011.2 -
17/06:30pm S 6 10 - - - - - - - 8.6 1011.1 -
17/06:00pm S 10 13 - - - - - - - 9.5 1011.0 -
17/05:30pm S 7 11 - - - - - - - 9.9 1010.6 -
17/05:00pm S 6 10 - - - - - - - 10.0 1010.4 -
17/04:30pm S 6 9 - - - - - - - 10.4 1010.4 -
17/04:00pm S 5 9 - - - - - - - 11.0 1010.1 -
17/03:30pm S 5 9 - - - - - - - 11.4 1010.2 -
17/03:00pm SSE 4 7 - - - - - - - 11.8 1010.0 -
17/02:30pm SSE 8 10 - - - - - - - 11.6 1009.9 -
17/02:00pm - - - - - - - - - - - - -
17/09:00am S 12 19 - - - - - - - 10.0 1010.9 0.4
17/08:30am S 13 16 - - - - - - - 10.0 1010.5 0.4
17/08:00am SSE 13 19 - - - - - - - 9.9 1010.1 0.4
17/07:30am S 12 16 - - - - - - - 10.0 1009.9 0.4
17/07:00am S 9 15 - - - - - - - 10.0 1009.8 0.2
17/06:30am S 10 14 - - - - - - - 10.2 1009.5 0.2
17/06:00am S 11 19 - - - - - - - 10.0 1009.1 0.2
17/05:30am S 9 16 - - - - - - - 10.3 1008.7 0.2
17/05:00am SW 6 8 - - - - - - - 9.9 1008.5 0.2
17/04:30am SSW 8 12 - - - - - - - 10.1 1008.3 0.2
17/04:00am S 10 15 - - - - - - - 10.1 1008.1 0.2
17/03:30am SSW 9 15 - - - - - - - 10.1 1008.2 0.2
17/03:00am SSW 7 13 - - - - - - - 9.5 1008.2 0.2
17/02:30am S 9 14 - - - - - - - 10.1 1008.1 0.2
17/02:00am SSW 7 13 - - - - - - - 9.9 1008.0 0.2
17/01:30am S 9 14 - - - - - - - 10.2 1007.8 0.2
17/01:00am S 10 15 - - - - - - - 10.4 1007.9 0.2
17/12:30am S 10 14 - - - - - - - 10.3 1007.9 0.2
17/12:00am SSW 7 12 - - - - - - - 10.2 1008.1 0.2
 
Date/Time
EST
Wind Sea
Height
m
Swell Vis
km
Cloud Weather Temp
°C
Press
MSL
hPa
Rain since
9am
mm
Dir  Spd
kts
Gust
kts
Height
m
Period
s
Dir
16/11:30pm S 9 13 - - - - - - - 10.7 1008.0 0.2
16/11:00pm S 8 13 - - - - - - - 10.7 1008.2 0.2
16/10:30pm SSW 8 12 - - - - - - - 10.8 1007.9 0.2
16/10:00pm SSW 8 12 - - - - - - - 11.0 1007.9 0.2
16/09:30pm S 9 13 - - - - - - - 11.1 1007.8 0.2
16/09:00pm S 10 15 - - - - - - - 11.2 1007.7 0.2
16/08:30pm S 9 14 - - - - - - - 11.2 1007.6 0.2
16/08:00pm S 10 15 - - - - - - - 11.4 1007.5 0.2
16/07:30pm S 8 14 - - - - - - - 11.2 1007.1 0.2
16/07:00pm S 9 15 - - - - - - - 11.4 1006.8 0.2
16/06:30pm S 13 17 - - - - - - - 11.7 1006.5 0.2
16/06:00pm S 12 18 - - - - - - - 11.8 1006.2 0.2
16/05:30pm S 9 15 - - - - - - - 12.0 1006.0 0.2
16/05:00pm S 14 23 - - - - - - - 12.4 1005.6 0.2
16/04:30pm S 16 23 - - - - - - - 12.8 1005.3 0.2
16/04:00pm SSE 20 29 - - - - - - - 13.0 1004.9 0.2
16/03:45pm SSE 23 33 - - - - - - - 13.2 1004.7 0.2
16/03:30pm SSE 23 31 - - - - - - - 13.1 1004.4 0.2
16/03:00pm SSE 23 30 - - - - - - - 13.2 1004.2 0.2
16/02:30pm SSE 21 34 - - - - - - - 13.4 1004.1 0.2
16/02:00pm SSE 23 30 - - - - - - - 13.6 1003.7 0.2
16/01:48pm SSE 22 32 - - - - - - - 13.9 1003.6 0.2
16/01:30pm SSE 25 34 - - - - - - - 13.9 1003.5 0.2
16/01:02pm SSE 23 33 - - - - - - - 13.8 1003.6 0.2
16/01:00pm SSE 24 33 - - - - - - - 13.9 1003.5 0.2
16/12:30pm SSE 22 33 - - - - - - - 13.9 1003.7 0.2
16/12:29pm SSE 22 33 - - - - - - - 13.9 1003.8 0.2
16/12:00pm SSE 20 28 - - - - - - Recent precip. 13.8 1004.0 0.2
16/11:39am SSE 22 33 - - - - - - - 13.4 1004.2 0.0
16/11:30am SSE 23 33 - - - - - - - 13.5 1004.2 0.0
16/11:00am SSE 18 26 - - - - - - - 13.5 1004.3 0.0
16/10:30am SSE 20 26 - - - - - - - 13.2 1004.3 0.0
16/10:23am SSE 21 31 - - - - - - - 13.6 1004.3 0.0
16/10:00am SSE 21 28 - - - - - - - 13.6 1004.0 0.0
16/09:30am SSE 22 31 - - - - - - - 13.3 1003.8 0.0
16/09:00am SSE 21 30 - - - - - - - 13.0 1003.4 19.0
16/08:30am SSE 18 26 - - - - - - - 12.8 1003.1 19.0
16/08:00am SSE 20 27 - - - - - - - 12.8 1002.7 19.0
16/07:30am SSE 18 24 - - - - - - - 12.6 1002.4 19.0
16/07:00am SSE 17 22 - - - - - - - 12.4 1002.0 19.0
16/06:30am SSE 14 22 - - - - - - - 12.2 1001.7 19.0
16/06:00am S 9 17 - - - - - - - 11.8 1001.3 17.8
16/05:30am S 12 17 - - - - - - - 11.9 1000.9 17.8
16/05:00am S 11 16 - - - - - - - 11.8 1000.6 17.8
16/04:30am S 12 17 - - - - - - - 11.7 1000.5 17.8
16/04:00am S 9 15 - - - - - - - 12.0 1000.4 17.8
16/03:30am SSE 15 19 - - - - - - - 12.2 1000.1 17.8
16/03:00am SSE 16 21 - - - - - - - 12.4 999.7 17.8
16/02:30am SSE 16 20 - - - - - - - 12.7 999.4 17.8
16/02:00am SSE 16 20 - - - - - - - 12.7 999.3 17.8
16/01:30am SSE 15 21 - - - - - - - 12.9 999.1 17.8
16/01:00am SE 18 22 - - - - - - - 13.1 998.8 17.8
16/12:30am SE 18 23 - - - - - - - 13.1 998.6 17.8
16/12:00am SE 20 26 - - - - - - - 13.2 998.2 17.8
 
Date/Time
EST
Wind Sea
Height
m
Swell Vis
km
Cloud Weather Temp
°C
Press
MSL
hPa
Rain since
9am
mm
Dir  Spd
kts
Gust
kts
Height
m
Period
s
Dir
15/11:30pm SE 21 28 - - - - - - - 13.1 998.0 17.8
15/11:00pm SE 19 25 - - - - - - - 12.9 997.7 17.8
15/10:36pm SE 22 32 - - - - - - - 12.7 997.5 17.8
15/10:30pm SE 20 29 - - - - - - - 12.9 997.6 17.8
15/10:00pm SE 19 25 - - - - - - - 12.7 997.3 17.8
15/09:30pm SE 20 25 - - - - - - - 12.8 997.0 17.8
15/09:17pm ESE 20 35 - - - - - - - 12.6 996.7 17.6
15/09:00pm ESE 20 23 - - - - - - Recent precip. 12.4 996.6 17.6
15/08:30pm ESE 20 26 - - - - - - - 12.2 996.1 17.6
15/08:00pm ESE 22 32 - - - - - - - 12.3 995.5 17.4
15/07:51pm SE 21 32 - - - - - - - 12.6 995.3 17.4
15/07:30pm ESE 22 29 - - - - - - - 12.6 994.9 17.4
15/07:00pm ESE 22 28 - - - - - - - 11.9 994.4 17.4

Other formats

Comma delimited format used in spreadsheet applications
http://www.bom.gov.au/fwo/IDT60701/IDT60701.95985.axf

JavaScript Object Notation format (JSON) in row-major order
http://www.bom.gov.au/fwo/IDT60701/IDT60701.95985.json

Data quality

Most of these data are generated automatically and are frequently updated. Quality checks on data are not normally performed. It is possible for incorrect values to appear. Refer to information at About Latest Weather Observations and please check the disclaimer before using these data.